Time;durP1;ratioP1;P1;durP2;ratioP2;P2;SDS_P1;SDS_P2;PMS_P1;PMS_P2;Temp;Humidity;BMP_temperature;BMP_pressure;BME280_temperature;BME280_humidity;BME280_pressure;Samples;Min_cycle;Max_cycle;Signal;HPM_P1;HPM_P2
2023/09/16 00:03:35;;;;;;;7.10;2.90;;;;;;;11.53;68.08;100176.56;436532;1254;140284;-65
2023/09/16 00:13:43;;;;;;;5.10;3.40;;;;;;;11.46;68.37;100174.02;436659;1253;139795;-66
2023/09/16 00:23:47;;;;;;;;;;;;;;;11.38;68.64;100173.25;435994;1254;139669;-66
2023/09/16 00:33:53;;;;;;;3.70;2.80;;;;;;;11.29;68.96;100175.84;435299;1256;125856;-66
2023/09/16 00:43:59;;;;;;;5.20;3.30;;;;;;;11.23;69.12;100173.55;435719;1256;139441;-67
2023/09/16 00:54:05;;;;;;;5.30;3.00;;;;;;;11.13;69.40;100162.75;436065;1256;139734;-65
2023/09/16 01:04:11;;;;;;;6.50;3.40;;;;;;;11.01;69.71;100159.36;435892;1256;141660;-64
2023/09/16 01:14:17;;;;;;;3.10;2.80;;;;;;;10.93;70.07;100163.85;436396;1253;139278;-65
2023/09/16 01:24:24;;;;;;;4.90;3.10;;;;;;;10.84;70.43;100166.27;436261;1253;140939;-62
2023/09/16 01:34:38;;;;;;;4.30;3.40;;;;;;;10.73;70.77;100161.12;436474;1256;140017;-66
2023/09/16 01:44:44;;;;;;;6.80;3.10;;;;;;;10.60;71.13;100152.34;435819;1254;140040;-63
2023/09/16 01:54:50;;;;;;;5.10;2.80;;;;;;;10.49;71.55;100153.12;436314;1256;139364;-65
2023/09/16 02:04:56;;;;;;;6.40;3.30;;;;;;;10.41;72.10;100156.37;436111;1253;139298;-67
2023/09/16 02:15:03;;;;;;;6.90;3.20;;;;;;;10.31;72.47;100156.34;435867;1253;139240;-65
2023/09/16 02:25:09;;;;;;;5.80;3.30;;;;;;;10.24;72.89;100157.73;436558;1256;139226;-66
2023/09/16 02:35:16;;;;;;;7.20;3.40;;;;;;;10.21;73.35;100152.46;435939;1253;140709;-65
2023/09/16 02:45:22;;;;;;;6.60;3.70;;;;;;;10.15;73.72;100162.08;436133;1253;139707;-65
2023/09/16 02:55:28;;;;;;;6.40;3.40;;;;;;;10.14;74.23;100167.71;435773;1253;139066;-66
2023/09/16 03:05:33;;;;;;;4.20;3.50;;;;;;;10.10;74.55;100160.42;436103;1257;139346;-66
2023/09/16 03:15:47;;;;;;;3.90;3.50;;;;;;;10.01;74.91;100159.30;436110;1253;140869;-65
2023/09/16 03:25:53;;;;;;;6.30;3.90;;;;;;;9.95;75.75;100157.85;436123;1253;140800;-66
2023/09/16 03:35:59;;;;;;;5.80;3.40;;;;;;;9.93;76.25;100151.48;435846;1257;139773;-66
2023/09/16 03:46:05;;;;;;;4.90;3.90;;;;;;;9.92;76.88;100148.77;435957;1253;139629;-66
2023/09/16 03:56:11;;;;;;;4.60;4.00;;;;;;;9.89;77.51;100157.12;435809;1254;138921;-66
2023/09/16 04:06:17;;;;;;;4.70;3.30;;;;;;;9.86;77.88;100151.37;436019;1257;139181;-66
2023/09/16 04:16:25;;;;;;;4.50;3.90;;;;;;;9.81;78.53;100158.60;435713;1253;140448;-63
2023/09/16 04:26:31;;;;;;;7.70;3.60;;;;;;;9.79;78.83;100162.36;435842;1253;139152;-66
2023/09/16 04:36:39;;;;;;;5.30;3.60;;;;;;;9.82;79.34;100157.34;435820;1257;140132;-65
2023/09/16 04:46:45;;;;;;;5.90;3.80;;;;;;;9.90;79.73;100149.38;436274;1257;140784;-65
2023/09/16 04:56:51;;;;;;;6.80;4.10;;;;;;;10.05;80.04;100148.61;435995;1255;140773;-64
2023/09/16 05:06:57;;;;;;;5.00;3.80;;;;;;;10.24;80.22;100154.23;435815;1254;139264;-67
2023/09/16 05:17:03;;;;;;;4.00;3.50;;;;;;;10.54;80.18;100161.97;435551;1257;139379;-65
2023/09/16 05:27:09;;;;;;;5.70;3.40;;;;;;;12.25;81.81;100161.17;435582;1257;139666;-66
2023/09/16 05:37:15;;;;;;;5.50;2.60;;;;;;;17.18;80.56;100151.70;435732;1257;139107;-66
2023/09/16 05:47:20;;;;;;;5.30;3.20;;;;;;;22.77;67.86;100149.33;435208;1256;140292;-65
2023/09/16 05:57:26;;;;;;;5.80;2.80;;;;;;;26.93;57.49;100150.11;436093;1257;139677;-66
2023/09/16 06:07:32;;;;;;;4.60;2.90;;;;;;;29.67;47.89;100149.68;435797;1254;138802;-67
2023/09/16 06:17:38;;;;;;;4.20;3.20;;;;;;;31.92;43.13;100150.73;435999;1255;139724;-66
2023/09/16 06:27:44;;;;;;;3.40;2.50;;;;;;;34.18;38.81;100144.40;435671;1257;139487;-66
2023/09/16 06:37:50;;;;;;;2.40;1.80;;;;;;;35.68;35.02;100131.95;435666;1253;139374;-66
2023/09/16 06:47:58;;;;;;;2.30;1.80;;;;;;;37.00;32.34;100131.76;436048;1256;140016;-67
2023/09/16 06:58:06;;;;;;;2.40;1.50;;;;;;;37.71;29.96;100125.34;435669;1256;139136;-65
2023/09/16 07:08:12;;;;;;;1.50;1.20;;;;;;;37.89;28.39;100125.96;435812;1253;138387;-67
2023/09/16 07:18:18;;;;;;;3.80;1.50;;;;;;;37.68;27.07;100127.48;435178;1257;140066;-66
2023/09/16 07:28:25;;;;;;;2.10;1.70;;;;;;;37.46;26.90;100126.52;435195;1257;139146;-66
2023/09/16 07:38:30;;;;;;;3.00;1.70;;;;;;;38.67;26.53;100122.11;435409;1257;138396;-68
2023/09/16 07:48:36;;;;;;;2.30;1.50;;;;;;;38.83;25.40;100118.76;435455;1257;139526;-66
2023/09/16 07:58:42;;;;;;;2.20;2.00;;;;;;;38.67;25.40;100129.89;435268;1257;140163;-67
2023/09/16 08:08:49;;;;;;;2.10;2.00;;;;;;;38.10;24.78;100122.23;435365;1257;138489;-66
2023/09/16 08:18:56;;;;;;;2.40;1.70;;;;;;;37.14;25.26;100115.30;435986;1257;139336;-66
2023/09/16 08:29:02;;;;;;;3.50;2.40;;;;;;;36.57;25.73;100109.41;435897;1256;138824;-67
2023/09/16 08:39:08;;;;;;;6.10;3.10;;;;;;;35.69;26.30;100108.11;436113;1256;139358;-68
2023/09/16 08:49:18;;;;;;;3.70;3.20;;;;;;;32.67;27.35;100108.13;435840;1257;138354;-67
2023/09/16 08:59:24;;;;;;;6.40;3.80;;;;;;;27.41;31.48;100102.66;435785;1256;139463;-67
2023/09/16 09:09:30;;;;;;;3.80;3.50;;;;;;;24.45;36.00;100101.14;435685;1256;138590;-65
2023/09/16 09:19:37;;;;;;;8.30;3.90;;;;;;;23.20;38.97;100097.71;435905;1257;138847;-67
2023/09/16 09:29:43;;;;;;;5.40;4.50;;;;;;;22.58;40.92;100092.92;435782;1256;140156;-67
2023/09/16 09:40:07;;;;;;;4.30;3.60;;;;;;;22.08;42.17;100084.23;435627;1257;138940;-67
2023/09/16 09:50:16;;;;;;;5.10;4.20;;;;;;;21.44;43.62;100076.88;436480;1257;138958;-66
2023/09/16 10:00:26;;;;;;;5.00;3.20;;;;;;;20.95;44.97;100058.18;435898;1257;138402;-67
2023/09/16 10:10:35;;;;;;;3.90;3.40;;;;;;;20.70;46.14;100051.68;436081;1254;138592;-67
2023/09/16 10:20:44;;;;;;;4.00;3.70;;;;;;;20.34;47.00;100049.77;436124;1255;138525;-66
2023/09/16 10:30:51;;;;;;;5.90;4.40;;;;;;;20.09;48.31;100042.04;436225;1256;138751;-65
2023/09/16 10:40:57;;;;;;;5.10;3.60;;;;;;;20.09;49.12;100034.71;435836;1254;138562;-66
2023/09/16 10:51:09;;;;;;;5.00;4.50;;;;;;;20.03;49.66;100016.27;436293;1256;138701;-66
2023/09/16 11:01:19;;;;;;;6.00;5.50;;;;;;;20.10;50.26;100002.40;436510;1256;139823;-68
2023/09/16 11:11:26;;;;;;;5.80;5.00;;;;;;;20.17;50.57;99994.01;435625;1254;139415;-68
2023/09/16 11:21:32;;;;;;;6.50;5.30;;;;;;;20.19;50.84;99974.91;435766;1257;138315;-66
2023/09/16 11:31:38;;;;;;;5.20;4.70;;;;;;;20.27;50.83;99970.77;435638;1257;138831;-68
2023/09/16 11:41:44;;;;;;;6.80;5.70;;;;;;;20.34;50.91;99953.03;435445;1257;140378;-66
2023/09/16 11:51:51;;;;;;;6.30;4.90;;;;;;;20.46;50.95;99951.14;435620;1254;139733;-67
2023/09/16 12:01:57;;;;;;;5.80;5.30;;;;;;;20.57;50.89;99942.89;435491;1254;138344;-67
2023/09/16 12:12:05;;;;;;;5.80;5.20;;;;;;;20.66;50.59;99942.58;435346;1256;139156;-67
2023/09/16 12:22:11;;;;;;;6.10;5.60;;;;;;;20.75;50.64;99933.64;435349;1257;138421;-66
2023/09/16 12:32:21;;;;;;;5.80;5.20;;;;;;;20.92;50.64;99923.01;435851;1254;138630;-66
2023/09/16 12:42:28;;;;;;;5.70;5.20;;;;;;;21.08;50.18;99908.08;435764;1254;138514;-67
2023/09/16 12:52:34;;;;;;;5.70;5.20;;;;;;;21.18;50.38;99902.11;435615;1257;139905;-66
2023/09/16 13:02:40;;;;;;;5.80;5.30;;;;;;;21.30;50.33;99898.30;435698;1257;139285;-66
2023/09/16 13:12:47;;;;;;;7.90;6.20;;;;;;;21.46;49.91;99888.86;435538;1256;139627;-67
2023/09/16 13:22:58;;;;;;;7.70;5.70;;;;;;;21.54;49.62;99879.98;435718;1254;139200;-66
2023/09/16 13:33:05;;;;;;;5.30;4.80;;;;;;;21.65;49.62;99871.93;435397;1254;139434;-65
2023/09/16 13:43:11;;;;;;;5.10;4.60;;;;;;;21.72;49.66;99866.42;440346;1252;138395;-66
2023/09/16 13:53:19;;;;;;;5.60;4.60;;;;;;;21.83;49.84;99861.77;435570;1257;138636;-65
2023/09/16 14:03:23;;;;;;;;;;;;;;;21.95;49.81;99869.42;435649;1257;139196;-65
2023/09/16 14:13:29;;;;;;;6.70;6.10;;;;;;;22.01;49.64;99859.00;435821;1254;126465;-66
2023/09/16 14:23:35;;;;;;;9.60;5.60;;;;;;;22.07;49.67;99854.08;435850;1256;138416;-65
2023/09/16 14:33:41;;;;;;;9.50;6.50;;;;;;;22.14;49.78;99851.39;436100;1253;138327;-65
2023/09/16 14:43:47;;;;;;;7.50;6.20;;;;;;;22.19;49.75;99839.20;436015;1256;138972;-65
2023/09/16 14:53:53;;;;;;;6.90;6.20;;;;;;;22.20;49.81;99830.88;435934;1253;139423;-65
2023/09/16 15:03:59;;;;;;;7.40;5.50;;;;;;;22.21;49.94;99825.33;436283;1256;139567;-66
2023/09/16 15:14:05;;;;;;;5.70;5.00;;;;;;;22.24;49.97;99824.73;436634;1256;138445;-69
2023/09/16 15:24:11;;;;;;;5.10;4.30;;;;;;;22.24;49.68;99824.83;436114;1254;138348;-67
2023/09/16 15:34:18;;;;;;;5.60;4.10;;;;;;;22.14;49.56;99819.65;436511;1253;141053;-67
2023/09/16 15:44:24;;;;;;;6.40;4.80;;;;;;;22.03;49.95;99819.73;436131;1254;138400;-66
2023/09/16 15:54:30;;;;;;;7.00;4.50;;;;;;;21.90;50.08;99815.76;435758;1254;139991;-66
2023/09/16 16:04:36;;;;;;;4.70;3.80;;;;;;;21.74;50.45;99808.80;435592;1256;138434;-66
2023/09/16 16:14:42;;;;;;;3.70;3.40;;;;;;;21.55;50.93;99805.95;435957;1253;138368;-67
2023/09/16 16:24:47;;;;;;;5.10;3.10;;;;;;;21.32;51.16;99806.95;435835;1256;139555;-65
2023/09/16 16:34:53;;;;;;;5.20;3.40;;;;;;;21.06;51.66;99797.89;435702;1253;139435;-64
2023/09/16 16:44:59;;;;;;;4.10;3.10;;;;;;;20.76;52.18;99787.44;435969;1253;139747;-64
2023/09/16 16:55:06;;;;;;;4.60;2.50;;;;;;;20.47;52.59;99783.15;436053;1256;138456;-63
2023/09/16 17:05:12;;;;;;;3.10;2.70;;;;;;;20.15;53.06;99785.53;436238;1253;138843;-65
2023/09/16 17:15:18;;;;;;;2.90;2.50;;;;;;;19.85;53.70;99781.52;435720;1256;138363;-66
2023/09/16 17:25:24;;;;;;;5.70;3.00;;;;;;;19.59;54.23;99786.20;435894;1256;138327;-66
2023/09/16 17:35:30;;;;;;;4.00;2.70;;;;;;;19.34;54.89;99790.81;435665;1253;140070;-65
2023/09/16 17:45:37;;;;;;;4.10;2.70;;;;;;;19.10;55.32;99794.20;435945;1253;139899;-66
2023/09/16 17:55:43;;;;;;;4.70;3.40;;;;;;;18.86;55.90;99797.52;435880;1254;138289;-66
2023/09/16 18:05:48;;;;;;;5.40;3.60;;;;;;;18.67;56.66;99804.06;435686;1256;138543;-66
2023/09/16 18:15:55;;;;;;;4.90;3.80;;;;;;;18.51;57.30;99811.98;436401;1256;139608;-61
2023/09/16 18:26:03;;;;;;;9.20;4.50;;;;;;;18.32;57.93;99821.13;436022;1253;138289;-63
2023/09/16 18:36:09;;;;;;;6.60;5.40;;;;;;;18.11;58.65;99828.02;435921;1253;138668;-63
2023/09/16 18:46:15;;;;;;;6.10;5.50;;;;;;;17.93;59.37;99823.42;435871;1254;138181;-61
2023/09/16 18:56:21;;;;;;;8.10;6.80;;;;;;;17.75;59.91;99822.08;435872;1253;138215;-63
2023/09/16 19:06:27;;;;;;;7.30;6.10;;;;;;;17.55;60.64;99829.13;435902;1254;138809;-63
2023/09/16 19:16:33;;;;;;;10.90;8.40;;;;;;;17.36;61.40;99828.45;436353;1256;141352;-62
2023/09/16 19:26:42;;;;;;;10.00;8.50;;;;;;;17.21;62.18;99822.70;436453;1253;153185;-62
2023/09/16 19:36:48;;;;;;;9.10;8.20;;;;;;;17.07;62.95;99817.57;436477;1256;139112;-63
2023/09/16 19:46:54;;;;;;;10.10;9.00;;;;;;;16.95;63.55;99820.35;435968;1253;140076;-63
2023/09/16 19:57:01;;;;;;;;;;;;;;;16.81;64.24;99815.95;436375;1253;141330;-63
2023/09/16 20:07:11;;;;;;;11.40;10.30;;;;;;;16.64;64.75;99807.70;436279;1256;127167;-63
2023/09/16 20:17:17;;;;;;;12.30;10.20;;;;;;;16.48;65.59;99806.38;435940;1253;139731;-63
2023/09/16 20:27:24;;;;;;;13.10;11.30;;;;;;;16.34;66.30;99807.15;435980;1252;139409;-62
2023/09/16 20:37:30;;;;;;;15.10;11.40;;;;;;;16.21;66.89;99804.23;435814;1254;140625;-62
2023/09/16 20:47:35;;;;;;;15.50;11.10;;;;;;;16.08;67.39;99799.64;435663;1253;140297;-64
2023/09/16 20:57:41;;;;;;;13.30;11.70;;;;;;;15.95;67.94;99792.73;435668;1256;140047;-62
2023/09/16 21:07:47;;;;;;;13.10;11.10;;;;;;;15.83;68.56;99790.19;436104;1253;139258;-62
2023/09/16 21:17:53;;;;;;;11.90;10.50;;;;;;;15.70;69.04;99797.39;435752;1256;139259;-63
2023/09/16 21:27:59;;;;;;;14.50;12.30;;;;;;;15.62;69.68;99798.09;436320;1254;139387;-63
2023/09/16 21:38:06;;;;;;;16.60;13.00;;;;;;;15.54;70.19;99791.34;435702;1253;140490;-62
2023/09/16 21:48:12;;;;;;;16.20;11.90;;;;;;;15.46;70.73;99779.10;435760;1256;140938;-63
2023/09/16 21:58:19;;;;;;;15.20;11.50;;;;;;;15.40;71.28;99770.20;435681;1252;139491;-63
2023/09/16 22:08:25;;;;;;;14.40;12.10;;;;;;;15.35;71.80;99759.88;435837;1253;140614;-65
2023/09/16 22:18:31;;;;;;;15.90;12.20;;;;;;;15.26;72.11;99758.48;435737;1253;139434;-63
2023/09/16 22:28:37;;;;;;;16.70;13.20;;;;;;;15.17;72.53;99758.16;435996;1254;141015;-63
2023/09/16 22:38:43;;;;;;;16.10;13.00;;;;;;;15.05;73.11;99749.73;435856;1256;140122;-63
2023/09/16 22:48:49;;;;;;;16.40;12.40;;;;;;;14.93;73.61;99748.00;435602;1256;139571;-64
2023/09/16 22:58:55;;;;;;;17.20;13.80;;;;;;;14.82;74.19;99748.42;435642;1256;139691;-64
2023/09/16 23:09:01;;;;;;;15.90;13.30;;;;;;;14.68;74.77;99746.63;435910;1253;141726;-64
2023/09/16 23:19:07;;;;;;;16.90;13.70;;;;;;;14.53;75.42;99740.03;435765;1256;141966;-64
2023/09/16 23:29:13;;;;;;;21.50;13.50;;;;;;;14.39;76.10;99730.15;435726;1256;142605;-63
2023/09/16 23:39:19;;;;;;;15.40;13.20;;;;;;;14.27;76.74;99737.13;435538;1253;139796;-64
2023/09/16 23:49:25;;;;;;;17.80;13.50;;;;;;;14.15;77.39;99733.41;435906;1256;139408;-63
2023/09/16 23:59:31;;;;;;;16.90;13.90;;;;;;;14.06;77.93;99739.91;435745;1254;139474;-64
